createdAt,value
2023-08-11T00:03:54.278Z,100.00
2023-08-11T00:07:57.085Z,100.00
2023-08-11T00:11:58.492Z,100.00
2023-08-11T00:15:59.936Z,100.00
2023-08-11T00:20:01.412Z,100.00
2023-08-11T00:24:04.435Z,100.00
2023-08-11T00:28:05.948Z,100.00
2023-08-11T00:32:07.353Z,100.00
2023-08-11T00:36:08.730Z,100.00
2023-08-11T00:40:12.229Z,100.00
2023-08-11T00:44:13.664Z,100.00
2023-08-11T00:48:15.560Z,100.00
2023-08-11T00:52:18.088Z,100.00
2023-08-11T00:56:22.681Z,100.00
2023-08-11T01:00:24.084Z,100.00
2023-08-11T01:04:25.521Z,100.00
2023-08-11T01:08:31.269Z,100.00
2023-08-11T01:12:37.005Z,100.00
2023-08-11T01:16:38.803Z,100.00
2023-08-11T01:20:40.531Z,100.00
2023-08-11T01:24:44.054Z,100.00
2023-08-11T01:28:45.608Z,100.00
2023-08-11T01:32:47.025Z,100.00
2023-08-11T01:36:50.970Z,100.00
2023-08-11T01:40:53.721Z,100.00
2023-08-11T01:44:55.288Z,100.00
2023-08-11T01:48:57.356Z,100.00
2023-08-11T01:52:58.793Z,100.00
2023-08-11T01:57:01.775Z,100.00
2023-08-11T02:01:03.205Z,100.00
2023-08-11T02:05:04.985Z,100.00
2023-08-11T02:09:06.430Z,100.00
2023-08-11T02:13:09.172Z,100.00
2023-08-11T02:17:10.667Z,100.00
2023-08-11T02:21:12.097Z,100.00
2023-08-11T02:25:13.657Z,100.00
2023-08-11T02:29:16.403Z,100.00
2023-08-11T02:33:17.807Z,100.00
2023-08-11T02:37:19.233Z,100.00
2023-08-11T02:41:20.604Z,100.00
2023-08-11T02:45:23.542Z,100.00
2023-08-11T02:49:24.973Z,100.00
2023-08-11T02:53:26.633Z,100.00
2023-08-11T02:57:28.016Z,100.00
2023-08-11T03:01:30.796Z,100.00
2023-08-11T03:05:32.239Z,100.00
2023-08-11T03:09:33.616Z,100.00
2023-08-11T03:13:35.058Z,100.00
2023-08-11T03:17:37.889Z,100.00
2023-08-11T03:21:39.347Z,100.00
2023-08-11T03:25:40.741Z,100.00
2023-08-11T03:29:42.163Z,100.00
2023-08-11T03:33:44.909Z,100.00
2023-08-11T03:37:46.324Z,100.00
2023-08-11T03:41:47.702Z,100.00
2023-08-11T03:45:50.786Z,100.00
2023-08-11T03:49:53.524Z,100.00
2023-08-11T03:53:54.906Z,100.00
2023-08-11T03:57:56.483Z,100.00
2023-08-11T04:01:57.881Z,100.00
2023-08-11T04:06:01.009Z,100.00
2023-08-11T04:10:02.403Z,100.00
2023-08-11T04:14:04.003Z,100.00
2023-08-11T04:18:05.695Z,100.00
2023-08-11T04:22:08.705Z,100.00
2023-08-11T04:26:10.296Z,100.00
2023-08-11T04:30:12.331Z,100.00
2023-08-11T04:34:13.716Z,100.00
2023-08-11T04:38:16.447Z,100.00
2023-08-11T04:42:17.943Z,100.00
2023-08-11T04:46:19.367Z,100.00
2023-08-11T04:50:20.824Z,100.00
2023-08-11T04:54:23.593Z,100.00
2023-08-11T04:58:25.023Z,100.00
2023-08-11T05:02:26.431Z,100.00
2023-08-11T05:06:27.824Z,100.00
2023-08-11T05:10:30.590Z,100.00
2023-08-11T05:14:32.082Z,100.00
2023-08-11T05:18:42.987Z,100.00
2023-08-11T05:22:45.537Z,100.00
2023-08-11T05:26:48.269Z,100.00
2023-08-11T05:30:49.661Z,100.00
2023-08-11T05:34:51.107Z,100.00
2023-08-11T05:38:52.522Z,100.00
2023-08-11T05:42:55.380Z,98.77
2023-08-11T05:46:56.784Z,95.55
2023-08-11T05:50:58.161Z,80.06
2023-08-11T05:54:59.568Z,73.13
2023-08-11T05:59:02.313Z,67.10
2023-08-11T06:03:04.096Z,59.29
2023-08-11T06:07:05.535Z,56.49
2023-08-11T06:11:06.968Z,56.63
2023-08-11T06:15:09.961Z,53.03
2023-08-11T06:19:11.407Z,54.12
2023-08-11T06:23:12.804Z,52.42
2023-08-11T06:27:14.267Z,49.32
2023-08-11T06:31:18.515Z,52.65
2023-08-11T06:35:20.030Z,51.65
2023-08-11T06:39:21.424Z,51.83
2023-08-11T06:43:22.849Z,52.06
2023-08-11T06:47:25.638Z,54.52
2023-08-11T06:51:27.037Z,51.21
2023-08-11T06:55:28.431Z,50.56
2023-08-11T06:59:29.827Z,50.44
2023-08-11T07:03:32.582Z,45.94
2023-08-11T07:07:33.978Z,44.99
2023-08-11T07:11:35.370Z,45.39
2023-08-11T07:15:39.325Z,48.93
2023-08-11T07:19:42.087Z,47.35
2023-08-11T07:23:43.460Z,48.31
2023-08-11T07:27:44.852Z,47.72
2023-08-11T07:31:46.402Z,48.60
2023-08-11T07:35:49.134Z,48.10
2023-08-11T07:39:50.537Z,43.45
2023-08-11T07:43:51.926Z,45.46
2023-08-11T07:47:53.417Z,44.64
2023-08-11T07:51:56.197Z,48.12
2023-08-11T07:55:57.583Z,44.70
2023-08-11T07:59:58.984Z,46.25
2023-08-11T08:04:00.501Z,44.15
2023-08-11T08:08:03.415Z,48.39
2023-08-11T08:12:04.836Z,43.11
2023-08-11T08:16:06.325Z,40.88
2023-08-11T08:20:08.380Z,37.59
2023-08-11T08:24:12.256Z,38.18
2023-08-11T08:28:13.642Z,41.99
2023-08-11T08:32:15.049Z,37.65
2023-08-11T08:36:16.431Z,40.89
2023-08-11T08:40:19.376Z,36.75
2023-08-11T08:44:20.834Z,37.51
2023-08-11T08:48:26.475Z,34.09
2023-08-11T08:52:28.235Z,38.05
2023-08-11T08:56:31.067Z,38.16
2023-08-11T09:00:32.661Z,36.86
2023-08-11T09:04:34.483Z,39.28
2023-08-11T09:08:38.932Z,38.96
2023-08-11T09:12:41.694Z,42.94
2023-08-11T09:16:43.154Z,41.88
2023-08-11T09:20:46.461Z,44.49
2023-08-11T09:24:47.855Z,47.21
2023-08-11T09:28:51.424Z,44.75
2023-08-11T09:32:53.055Z,50.81
2023-08-11T09:36:54.815Z,45.72
2023-08-11T09:41:00.040Z,43.47
2023-08-11T09:45:02.865Z,48.23
2023-08-11T09:49:04.501Z,50.46
2023-08-11T09:53:06.383Z,48.66
2023-08-11T09:57:08.272Z,50.26
2023-08-11T10:01:20.278Z,47.87
2023-08-11T10:05:23.514Z,47.80
2023-08-11T10:09:26.445Z,47.76
2023-08-11T10:13:28.441Z,45.59
2023-08-11T10:17:31.692Z,47.47
2023-08-11T10:21:33.179Z,47.41
2023-08-11T10:25:35.163Z,47.35
2023-08-11T10:29:36.886Z,47.80
2023-08-11T10:33:39.631Z,48.13
2023-08-11T10:37:41.029Z,47.84
2023-08-11T10:41:45.162Z,47.61
2023-08-11T10:45:46.604Z,47.55
2023-08-11T10:49:49.400Z,47.44
2023-08-11T10:53:50.873Z,49.88
2023-08-11T10:58:07.151Z,47.63
2023-08-11T11:02:08.777Z,49.18
2023-08-11T11:06:11.950Z,49.56
2023-08-11T11:10:13.389Z,49.30
2023-08-11T11:14:15.121Z,49.41
2023-08-11T11:18:16.567Z,48.25
2023-08-11T11:22:19.337Z,45.09
2023-08-11T11:26:24.543Z,47.16
2023-08-11T11:30:26.046Z,45.77
2023-08-11T11:34:27.494Z,46.73
2023-08-11T11:38:30.470Z,48.39
2023-08-11T11:42:32.063Z,48.74
2023-08-11T11:46:33.857Z,44.90
2023-08-11T11:50:35.328Z,46.10
2023-08-11T11:54:38.103Z,46.55
2023-08-11T11:58:39.614Z,46.97
2023-08-11T12:02:41.038Z,48.05
2023-08-11T12:06:43.169Z,47.35
2023-08-11T12:10:47.309Z,47.50
2023-08-11T12:14:49.825Z,46.63
2023-08-11T12:18:51.218Z,46.01
2023-08-11T12:22:52.632Z,46.45
2023-08-11T12:26:55.382Z,46.94
2023-08-11T12:30:57.361Z,46.10
2023-08-11T12:34:58.756Z,46.15
2023-08-11T12:39:00.195Z,48.43
2023-08-11T12:43:03.095Z,48.52
2023-08-11T12:47:04.766Z,48.03
2023-08-11T12:51:06.192Z,48.22
2023-08-11T12:55:08.633Z,48.18
2023-08-11T12:59:11.382Z,48.44
2023-08-11T13:03:12.841Z,48.98
2023-08-11T13:07:14.293Z,49.06
2023-08-11T13:11:15.700Z,48.31
2023-08-11T13:15:18.518Z,48.80
2023-08-11T13:19:19.901Z,48.41
2023-08-11T13:23:21.290Z,46.34
2023-08-11T13:27:22.699Z,47.23
2023-08-11T13:31:25.683Z,47.98
2023-08-11T13:35:27.152Z,46.99
2023-08-11T13:39:28.552Z,48.29
2023-08-11T13:43:29.988Z,48.19
2023-08-11T13:56:39.336Z,47.39
2023-08-11T14:00:40.953Z,48.33
2023-08-11T14:04:42.547Z,47.35
2023-08-11T14:08:44.217Z,47.08
2023-08-11T14:12:47.141Z,49.30
2023-08-11T14:16:48.729Z,47.49
2023-08-11T14:20:50.294Z,49.11
2023-08-11T14:24:54.689Z,47.77
2023-08-11T14:28:58.693Z,46.16
2023-08-11T14:33:00.692Z,48.30
2023-08-11T14:37:02.310Z,47.76
2023-08-11T14:41:03.869Z,46.42
2023-08-11T14:45:08.337Z,46.80
2023-08-11T14:49:09.961Z,47.41
2023-08-11T14:53:11.524Z,47.07
2023-08-11T14:57:13.122Z,46.28
2023-08-11T15:01:17.225Z,46.41
2023-08-11T15:05:19.000Z,47.12
2023-08-11T15:09:20.613Z,47.47
2023-08-11T15:13:22.200Z,47.94
2023-08-11T15:17:25.126Z,47.42
2023-08-11T15:21:26.662Z,46.71
2023-08-11T15:25:28.243Z,46.29
2023-08-11T15:29:29.858Z,47.54
2023-08-11T15:33:32.875Z,47.90
2023-08-11T15:37:34.515Z,47.25
2023-08-11T15:41:36.074Z,48.71
2023-08-11T15:45:37.666Z,49.35
2023-08-11T15:49:40.600Z,48.55
2023-08-11T15:53:42.155Z,48.26
2023-08-11T15:57:43.764Z,48.68
2023-08-11T16:01:55.878Z,48.29
2023-08-11T16:06:06.870Z,50.74
2023-08-11T16:10:09.236Z,47.48
2023-08-11T16:14:10.984Z,48.96
2023-08-11T16:18:12.552Z,51.84
2023-08-11T16:22:15.476Z,51.76
2023-08-11T16:26:17.225Z,49.61
2023-08-11T16:30:18.972Z,56.02
2023-08-11T16:34:23.086Z,56.33
2023-08-11T16:38:26.102Z,51.24
2023-08-11T16:42:27.761Z,54.50
2023-08-11T16:46:29.347Z,54.02
2023-08-11T16:50:30.929Z,54.43
2023-08-11T16:54:33.879Z,56.37
2023-08-11T16:58:35.836Z,55.29
2023-08-11T17:02:37.525Z,56.75
2023-08-11T17:06:39.122Z,59.41
2023-08-11T17:10:42.607Z,59.50
2023-08-11T17:14:44.175Z,61.46
2023-08-11T17:18:46.832Z,61.88
2023-08-11T17:22:49.330Z,66.10
2023-08-11T17:26:52.654Z,67.57
2023-08-11T17:30:54.253Z,70.71
2023-08-11T17:34:58.334Z,73.55
2023-08-11T17:39:00.275Z,77.35
2023-08-11T17:43:03.414Z,81.10
2023-08-11T17:47:08.764Z,82.02
2023-08-11T17:51:10.609Z,83.77
2023-08-11T17:55:12.180Z,83.92
2023-08-11T17:59:15.469Z,85.23
2023-08-11T18:03:17.008Z,85.73
2023-08-11T18:07:18.644Z,87.70
2023-08-11T18:11:20.229Z,86.58
2023-08-11T18:15:23.396Z,89.57
2023-08-11T18:19:25.004Z,88.33
2023-08-11T18:23:26.579Z,89.42
2023-08-11T18:27:30.417Z,90.17
2023-08-11T18:31:34.803Z,91.93
2023-08-11T18:35:36.282Z,92.46
2023-08-11T18:39:37.946Z,90.34
2023-08-11T18:43:39.548Z,94.28
2023-08-11T18:47:42.507Z,93.32
2023-08-11T18:51:44.110Z,94.21
2023-08-11T18:55:45.691Z,94.58
2023-08-11T18:59:47.282Z,93.05
2023-08-11T19:03:50.298Z,95.03
2023-08-11T19:07:51.912Z,95.17
2023-08-11T19:11:53.471Z,95.48
2023-08-11T19:15:55.055Z,96.75
2023-08-11T19:19:57.987Z,96.88
2023-08-11T19:23:59.382Z,96.43
2023-08-11T19:28:01.094Z,97.20
2023-08-11T19:32:02.761Z,97.24
2023-08-11T19:36:05.934Z,98.04
2023-08-11T19:40:08.577Z,99.12
2023-08-11T19:44:10.176Z,99.24
2023-08-11T19:48:11.796Z,99.57
2023-08-11T19:52:14.841Z,100.00
2023-08-11T19:56:16.416Z,100.00
2023-08-11T20:00:18.225Z,100.00
2023-08-11T20:04:19.936Z,100.00
2023-08-11T20:08:23.033Z,100.00
2023-08-11T20:12:24.683Z,100.00
2023-08-11T20:16:26.651Z,100.00
2023-08-11T20:20:28.424Z,100.00
2023-08-11T20:24:34.120Z,100.00
2023-08-11T20:28:35.668Z,100.00
2023-08-11T20:32:37.300Z,100.00
2023-08-11T20:36:38.870Z,100.00
2023-08-11T20:40:41.763Z,100.00
2023-08-11T20:44:43.309Z,100.00
2023-08-11T20:48:44.850Z,100.00
2023-08-11T20:52:46.418Z,100.00
2023-08-11T20:56:49.394Z,100.00
2023-08-11T21:00:51.003Z,100.00
2023-08-11T21:04:52.590Z,100.00
2023-08-11T21:08:54.125Z,100.00
2023-08-11T21:12:57.012Z,100.00
2023-08-11T21:17:01.236Z,100.00
2023-08-11T21:21:04.405Z,100.00
2023-08-11T21:25:06.201Z,100.00
2023-08-11T21:29:09.814Z,100.00
2023-08-11T21:33:11.407Z,100.00
2023-08-11T21:37:13.170Z,100.00
2023-08-11T21:41:14.890Z,100.00
2023-08-11T21:45:17.983Z,100.00
2023-08-11T21:49:19.450Z,100.00
2023-08-11T21:53:23.743Z,100.00
2023-08-11T21:57:25.764Z,100.00
2023-08-11T22:01:28.667Z,100.00
2023-08-11T22:05:31.880Z,100.00
2023-08-11T22:09:33.712Z,100.00
2023-08-11T22:13:35.284Z,100.00
2023-08-11T22:17:38.208Z,100.00
2023-08-11T22:21:39.770Z,100.00
2023-08-11T22:25:41.320Z,100.00
2023-08-11T22:29:42.891Z,100.00
2023-08-11T22:33:45.791Z,100.00
2023-08-11T22:37:47.374Z,100.00
2023-08-11T22:41:48.927Z,100.00
2023-08-11T22:45:50.494Z,100.00
2023-08-11T22:49:53.417Z,100.00
2023-08-11T22:53:54.946Z,100.00
2023-08-11T22:57:56.488Z,100.00
2023-08-11T23:01:58.069Z,100.00
2023-08-11T23:06:00.983Z,100.00
2023-08-11T23:10:02.609Z,100.00
2023-08-11T23:14:04.317Z,100.00
2023-08-11T23:18:05.878Z,100.00
2023-08-11T23:22:08.841Z,100.00
2023-08-11T23:26:10.428Z,100.00
2023-08-11T23:30:12.412Z,100.00
2023-08-11T23:34:13.986Z,100.00
2023-08-11T23:38:16.932Z,100.00
2023-08-11T23:42:18.510Z,100.00
2023-08-11T23:46:20.076Z,100.00
2023-08-11T23:50:21.724Z,100.00
2023-08-11T23:54:24.610Z,100.00
2023-08-11T23:58:26.199Z,100.00
